createdAt,value
2019-05-28T00:01:03.864Z,66.27
2019-05-28T00:03:32.264Z,65.98
2019-05-28T00:06:00.675Z,65.68
2019-05-28T00:08:29.097Z,65.57
2019-05-28T00:10:57.599Z,65.17
2019-05-28T00:13:26.055Z,64.88
2019-05-28T00:15:54.459Z,64.58
2019-05-28T00:18:22.863Z,64.34
2019-05-28T00:20:51.313Z,64.72
2019-05-28T00:23:19.711Z,64.84
2019-05-28T00:25:48.110Z,64.56
2019-05-28T00:28:16.511Z,64.40
2019-05-28T00:30:44.932Z,64.33
2019-05-28T00:33:13.341Z,64.56
2019-05-28T00:35:41.742Z,64.55
2019-05-28T00:38:10.156Z,64.43
2019-05-28T00:40:38.563Z,64.63
2019-05-28T00:43:06.979Z,64.90
2019-05-28T00:45:35.395Z,64.78
2019-05-28T00:48:03.803Z,64.44
2019-05-28T00:50:32.200Z,64.32
2019-05-28T00:53:00.634Z,64.29
2019-05-28T00:55:29.045Z,64.64
2019-05-28T00:57:58.579Z,64.79
2019-05-28T01:00:44.766Z,64.68
2019-05-28T01:03:13.151Z,64.74
2019-05-28T01:05:41.561Z,65.08
2019-05-28T01:08:10.058Z,65.94
2019-05-28T01:10:38.465Z,65.92
2019-05-28T01:13:07.395Z,65.83
2019-05-28T01:15:35.824Z,65.42
2019-05-28T01:18:04.565Z,65.21
2019-05-28T01:20:32.963Z,65.53
2019-05-28T01:23:01.355Z,66.01
2019-05-28T01:25:29.765Z,65.99
2019-05-28T01:27:58.166Z,66.50
2019-05-28T01:30:26.571Z,66.59
2019-05-28T01:32:54.982Z,66.94
2019-05-28T01:35:23.384Z,67.27
2019-05-28T01:37:51.779Z,67.45
2019-05-28T01:40:23.120Z,67.42
2019-05-28T01:42:50.466Z,67.52
2019-05-28T01:45:20.420Z,68.18
2019-05-28T01:47:48.890Z,68.48
2019-05-28T01:50:17.548Z,68.63
2019-05-28T01:52:45.996Z,68.93
2019-05-28T01:55:14.541Z,69.04
2019-05-28T01:57:42.936Z,68.82
2019-05-28T02:00:11.680Z,68.92
2019-05-28T02:02:40.084Z,69.35
2019-05-28T02:05:09.338Z,69.17
2019-05-28T02:07:37.739Z,69.00
2019-05-28T02:10:06.980Z,69.02
2019-05-28T02:12:35.377Z,69.50
2019-05-28T02:15:05.352Z,69.64
2019-05-28T02:17:33.767Z,69.17
2019-05-28T02:20:02.191Z,68.99
2019-05-28T02:22:30.590Z,69.50
2019-05-28T02:24:58.992Z,69.71
2019-05-28T02:27:27.397Z,70.33
2019-05-28T02:29:55.793Z,70.99
2019-05-28T02:32:24.201Z,72.13
2019-05-28T02:34:52.602Z,71.87
2019-05-28T02:37:21.011Z,72.85
2019-05-28T02:39:49.503Z,73.61
2019-05-28T02:42:17.903Z,73.75
2019-05-28T02:44:46.301Z,74.33
2019-05-28T02:47:14.954Z,74.75
2019-05-28T02:49:43.349Z,75.42
2019-05-28T02:52:12.829Z,75.72
2019-05-28T02:54:41.294Z,75.91
2019-05-28T02:57:10.382Z,75.74
2019-05-28T02:59:39.397Z,75.36
2019-05-28T03:02:07.816Z,74.97
2019-05-28T03:04:38.508Z,74.77
2019-05-28T03:07:08.901Z,74.21
2019-05-28T03:09:40.777Z,73.75
2019-05-28T03:12:09.185Z,73.49
2019-05-28T03:14:37.592Z,73.47
2019-05-28T03:17:07.345Z,72.83
2019-05-28T03:19:38.271Z,73.08
2019-05-28T03:22:08.818Z,72.69
2019-05-28T03:24:38.243Z,72.24
2019-05-28T03:27:06.727Z,72.59
2019-05-28T03:29:35.125Z,72.54
2019-05-28T03:32:07.864Z,72.58
2019-05-28T03:34:33.642Z,72.69
2019-05-28T03:37:02.623Z,72.67
2019-05-28T03:39:31.748Z,72.65
2019-05-28T03:42:00.146Z,72.51
2019-05-28T03:44:28.547Z,72.33
2019-05-28T03:46:57.182Z,72.23
2019-05-28T03:49:25.584Z,72.26
2019-05-28T03:51:53.987Z,71.94
2019-05-28T03:54:22.385Z,71.68
2019-05-28T03:56:50.793Z,71.51
2019-05-28T03:59:19.194Z,71.44
2019-05-28T04:01:47.597Z,71.25
2019-05-28T04:04:16.001Z,71.36
2019-05-28T04:06:44.563Z,71.34
2019-05-28T04:09:12.973Z,71.39
2019-05-28T04:11:45.126Z,71.72
2019-05-28T04:14:11.493Z,71.86
2019-05-28T04:16:39.896Z,71.73
2019-05-28T04:19:08.303Z,71.48
2019-05-28T04:21:36.698Z,71.56
2019-05-28T04:24:05.184Z,71.66
2019-05-28T04:26:33.758Z,71.67
2019-05-28T04:29:02.207Z,71.26
2019-05-28T04:31:30.608Z,70.98
2019-05-28T04:33:59.018Z,71.12
2019-05-28T04:36:27.418Z,70.92
2019-05-28T04:38:55.823Z,70.44
2019-05-28T04:41:24.222Z,70.10
2019-05-28T04:43:52.734Z,69.35
2019-05-28T04:46:21.125Z,69.17
2019-05-28T04:48:49.542Z,68.96
2019-05-28T04:51:17.957Z,68.83
2019-05-28T04:53:46.352Z,68.20
2019-05-28T04:56:14.798Z,67.79
2019-05-28T04:58:43.161Z,67.46
2019-05-28T05:01:11.569Z,67.77
2019-05-28T05:03:40.047Z,67.83
2019-05-28T05:06:08.536Z,68.13
2019-05-28T05:08:36.958Z,67.78
2019-05-28T05:11:05.394Z,66.91
2019-05-28T05:13:33.796Z,67.21
2019-05-28T05:16:02.199Z,66.62
2019-05-28T05:18:30.633Z,65.71
2019-05-28T05:20:59.009Z,64.55
2019-05-28T05:23:27.428Z,64.43
2019-05-28T05:25:55.815Z,64.05
2019-05-28T05:28:24.230Z,64.50
2019-05-28T05:30:52.629Z,65.60
2019-05-28T05:33:21.100Z,65.87
2019-05-28T05:35:49.438Z,66.28
2019-05-28T05:38:17.854Z,65.95
2019-05-28T05:40:46.270Z,65.64
2019-05-28T05:43:14.658Z,66.66
2019-05-28T05:45:43.050Z,65.72
2019-05-28T05:48:11.465Z,65.58
2019-05-28T05:50:39.863Z,65.21
2019-05-28T05:53:08.271Z,64.13
2019-05-28T05:55:36.662Z,64.36
2019-05-28T05:58:05.066Z,64.63
2019-05-28T06:00:33.470Z,64.83
2019-05-28T06:03:01.905Z,65.07
2019-05-28T06:05:30.260Z,62.78
2019-05-28T06:07:58.689Z,62.23
2019-05-28T06:10:27.100Z,56.41
2019-05-28T06:12:55.734Z,50.32
2019-05-28T06:15:24.215Z,49.87
2019-05-28T06:17:52.604Z,49.76
2019-05-28T06:20:21.076Z,50.31
2019-05-28T06:22:49.479Z,48.79
2019-05-28T06:25:18.055Z,48.73
2019-05-28T06:27:46.443Z,50.22
2019-05-28T06:30:14.990Z,50.35
2019-05-28T06:32:43.399Z,50.72
2019-05-28T06:35:12.043Z,51.66
2019-05-28T06:37:40.905Z,50.17
2019-05-28T06:40:09.641Z,47.53
2019-05-28T06:42:39.652Z,47.59
2019-05-28T06:45:08.418Z,47.37
2019-05-28T06:47:36.803Z,48.44
2019-05-28T06:50:12.627Z,49.16
2019-05-28T06:52:41.241Z,51.45
2019-05-28T06:55:10.243Z,51.73
2019-05-28T06:57:38.629Z,53.48
2019-05-28T07:00:08.104Z,54.97
2019-05-28T07:02:37.432Z,56.20
2019-05-28T07:05:07.546Z,57.19
2019-05-28T07:07:35.941Z,57.36
2019-05-28T07:10:05.913Z,58.09
2019-05-28T07:12:34.297Z,59.77
2019-05-28T07:15:02.763Z,59.35
2019-05-28T07:17:31.190Z,59.56
2019-05-28T07:19:59.603Z,59.68
2019-05-28T07:22:28.089Z,57.27
2019-05-28T07:24:56.481Z,56.32
2019-05-28T07:27:24.869Z,55.67
2019-05-28T07:29:53.272Z,49.86
2019-05-28T07:32:21.672Z,45.82
2019-05-28T07:34:50.079Z,45.65
2019-05-28T07:37:18.528Z,43.47
2019-05-28T07:39:46.887Z,42.92
2019-05-28T07:42:29.826Z,42.77
2019-05-28T07:44:45.412Z,44.01
2019-05-28T07:47:13.822Z,44.37
2019-05-28T07:49:42.216Z,43.25
2019-05-28T07:52:10.610Z,42.61
2019-05-28T07:54:39.628Z,42.22
2019-05-28T07:57:08.094Z,43.68
2019-05-28T07:59:36.494Z,42.82
2019-05-28T08:02:04.892Z,44.00
2019-05-28T08:04:46.254Z,43.08
2019-05-28T08:07:03.657Z,44.29
2019-05-28T08:09:32.059Z,44.00
2019-05-28T08:12:00.519Z,43.81
2019-05-28T08:14:28.925Z,43.50
2019-05-28T08:16:57.316Z,43.30
2019-05-28T08:19:25.727Z,42.13
2019-05-28T08:21:54.129Z,41.67
2019-05-28T08:24:23.107Z,39.34
2019-05-28T08:26:51.599Z,38.73
2019-05-28T08:29:19.997Z,42.00
2019-05-28T08:31:48.487Z,38.84
2019-05-28T08:34:19.386Z,40.40
2019-05-28T08:37:04.121Z,39.09
2019-05-28T08:39:17.215Z,39.56
2019-05-28T08:41:45.620Z,37.90
2019-05-28T08:44:14.014Z,38.49
2019-05-28T08:46:42.427Z,38.08
2019-05-28T08:49:11.022Z,37.70
2019-05-28T08:51:39.521Z,37.08
2019-05-28T08:54:08.089Z,37.18
2019-05-28T08:56:36.587Z,38.68
2019-05-28T08:59:05.152Z,39.27
2019-05-28T09:01:33.660Z,38.27
2019-05-28T09:04:02.051Z,38.97
2019-05-28T09:06:30.451Z,40.44
2019-05-28T09:08:58.855Z,38.77
2019-05-28T09:11:27.238Z,40.38
2019-05-28T09:13:55.639Z,38.73
2019-05-28T09:16:24.040Z,41.34
2019-05-28T09:18:52.437Z,38.59
2019-05-28T09:21:21.089Z,38.88
2019-05-28T09:23:49.502Z,40.33
2019-05-28T09:26:17.903Z,42.48
2019-05-28T09:28:46.410Z,39.04
2019-05-28T09:31:14.791Z,42.91
2019-05-28T09:33:43.194Z,42.69
2019-05-28T09:36:12.089Z,42.21
2019-05-28T09:38:40.524Z,42.87
2019-05-28T09:41:08.931Z,46.30
2019-05-28T09:43:37.330Z,45.10
2019-05-28T09:46:05.759Z,45.29
2019-05-28T09:48:34.172Z,45.92
2019-05-28T09:51:02.556Z,46.80
2019-05-28T09:53:31.046Z,42.57
2019-05-28T09:55:59.542Z,42.52
2019-05-28T09:58:27.952Z,40.81
2019-05-28T10:00:58.958Z,41.60
2019-05-28T10:03:26.745Z,41.45
2019-05-28T10:06:07.019Z,42.80
2019-05-28T10:08:25.280Z,42.32
2019-05-28T10:10:53.700Z,42.45
2019-05-28T10:13:37.155Z,44.95
2019-05-28T10:15:52.238Z,43.23
2019-05-28T10:18:20.651Z,44.04
2019-05-28T10:20:49.057Z,43.02
2019-05-28T10:23:17.449Z,42.57
2019-05-28T10:25:45.926Z,44.57
2019-05-28T10:28:14.404Z,44.33
2019-05-28T10:30:42.816Z,43.32
2019-05-28T10:33:11.244Z,42.55
2019-05-28T10:35:39.655Z,39.57
2019-05-28T10:38:14.525Z,39.22
2019-05-28T10:40:38.187Z,39.65
2019-05-28T10:43:06.579Z,41.06
2019-05-28T10:45:34.980Z,39.60
2019-05-28T10:48:03.385Z,38.86
2019-05-28T10:50:31.781Z,37.48
2019-05-28T10:53:00.186Z,38.25
2019-05-28T10:55:28.576Z,41.15
2019-05-28T10:57:56.978Z,39.43
2019-05-28T11:00:25.680Z,39.54
2019-05-28T11:02:54.092Z,37.83
2019-05-28T11:05:22.924Z,38.86
2019-05-28T11:07:51.335Z,39.14
2019-05-28T11:10:24.231Z,38.55
2019-05-28T11:12:50.038Z,37.91
2019-05-28T11:15:23.598Z,38.29
2019-05-28T11:17:50.126Z,36.52
2019-05-28T11:20:20.760Z,36.42
2019-05-28T11:22:49.196Z,36.08
2019-05-28T11:25:19.428Z,36.17
2019-05-28T11:27:47.829Z,36.99
2019-05-28T11:30:17.596Z,37.48
2019-05-28T11:32:46.593Z,38.05
2019-05-28T11:35:17.219Z,38.54
2019-05-28T11:37:45.775Z,39.06
2019-05-28T11:40:16.303Z,38.17
2019-05-28T11:42:44.716Z,39.12
2019-05-28T11:45:16.053Z,37.27
2019-05-28T11:47:45.055Z,40.58
2019-05-28T11:50:13.788Z,38.91
2019-05-28T11:52:42.212Z,39.34
2019-05-28T11:55:15.826Z,38.71
2019-05-28T11:57:44.234Z,38.99
2019-05-28T12:00:14.863Z,37.18
2019-05-28T12:02:43.317Z,37.62
2019-05-28T12:05:14.294Z,36.31
2019-05-28T12:07:42.669Z,36.87
2019-05-28T12:10:11.931Z,38.71
2019-05-28T12:12:40.341Z,38.17
2019-05-28T12:15:11.183Z,39.41
2019-05-28T12:17:43.767Z,38.57
2019-05-28T12:20:11.165Z,39.39
2019-05-28T12:22:39.958Z,39.23
2019-05-28T12:25:10.890Z,42.82
2019-05-28T12:27:39.293Z,37.98
2019-05-28T12:30:09.529Z,37.21
2019-05-28T12:32:37.995Z,41.29
2019-05-28T12:35:23.855Z,37.34
2019-05-28T12:37:47.805Z,37.14
2019-05-28T12:40:09.819Z,37.98
2019-05-28T12:42:38.294Z,38.93
2019-05-28T12:45:10.757Z,37.12
2019-05-28T12:47:39.136Z,39.87
2019-05-28T12:50:18.931Z,38.81
2019-05-28T12:52:38.370Z,40.50
2019-05-28T12:55:07.398Z,42.05
2019-05-28T12:57:35.867Z,41.95
2019-05-28T13:00:08.338Z,42.49
2019-05-28T13:02:36.817Z,42.37
2019-05-28T13:05:14.051Z,41.35
2019-05-28T13:07:42.506Z,42.46
2019-05-28T13:10:12.426Z,41.71
2019-05-28T13:12:40.822Z,43.05
2019-05-28T13:15:12.060Z,43.15
2019-05-28T13:17:40.486Z,42.01
2019-05-28T13:20:09.607Z,41.95
2019-05-28T13:22:38.238Z,40.64
2019-05-28T13:25:07.624Z,39.61
2019-05-28T13:27:36.052Z,38.94
2019-05-28T13:30:08.132Z,39.78
2019-05-28T13:32:36.646Z,39.96
2019-05-28T13:35:08.082Z,40.25
2019-05-28T13:37:36.509Z,38.36
2019-05-28T13:40:06.875Z,39.03
2019-05-28T13:42:35.253Z,39.47
2019-05-28T13:45:05.421Z,40.00
2019-05-28T13:47:34.417Z,41.01
2019-05-28T13:50:03.598Z,41.35
2019-05-28T13:52:31.991Z,40.67
2019-05-28T13:55:00.401Z,41.27
2019-05-28T13:57:28.798Z,40.00
2019-05-28T13:59:58.480Z,41.15
2019-05-28T14:02:27.328Z,41.80
2019-05-28T14:04:55.738Z,40.96
2019-05-28T14:07:24.132Z,41.08
2019-05-28T14:09:52.534Z,41.11
2019-05-28T14:12:21.002Z,41.03
2019-05-28T14:14:49.411Z,41.27
2019-05-28T14:17:17.865Z,41.95
2019-05-28T14:19:46.274Z,41.10
2019-05-28T14:22:32.694Z,42.13
2019-05-28T14:24:44.842Z,41.80
2019-05-28T14:27:13.271Z,41.48
2019-05-28T14:29:41.677Z,43.22
2019-05-28T14:32:10.077Z,42.37
2019-05-28T14:34:38.485Z,42.13
2019-05-28T14:37:06.954Z,41.17
2019-05-28T14:39:41.097Z,42.44
2019-05-28T14:42:05.653Z,41.10
2019-05-28T14:44:34.064Z,41.11
2019-05-28T14:47:02.500Z,40.42
2019-05-28T14:49:30.907Z,40.75
2019-05-28T14:51:59.318Z,41.91
2019-05-28T14:54:27.734Z,42.02
2019-05-28T14:56:56.134Z,41.83
2019-05-28T14:59:24.546Z,42.12
2019-05-28T15:01:52.947Z,42.15
2019-05-28T15:04:21.364Z,43.56
2019-05-28T15:06:49.785Z,43.78
2019-05-28T15:09:21.333Z,43.08
2019-05-28T15:11:48.305Z,41.96
2019-05-28T15:14:16.716Z,41.77
2019-05-28T15:16:45.115Z,42.70
2019-05-28T15:19:13.524Z,43.90
2019-05-28T15:21:41.934Z,42.81
2019-05-28T15:24:10.342Z,43.28
2019-05-28T15:26:38.772Z,43.75
2019-05-28T15:29:07.166Z,43.18
2019-05-28T15:31:35.580Z,42.33
2019-05-28T15:34:03.981Z,41.78
2019-05-28T15:36:32.372Z,44.00
2019-05-28T15:39:00.781Z,42.60
2019-05-28T15:41:29.173Z,43.63
2019-05-28T15:43:57.575Z,42.44
2019-05-28T15:46:25.979Z,42.67
2019-05-28T15:48:54.389Z,41.35
2019-05-28T15:51:22.785Z,41.06
2019-05-28T15:53:51.188Z,41.85
2019-05-28T15:56:19.600Z,41.66
2019-05-28T15:58:48.004Z,41.87
2019-05-28T16:01:16.481Z,42.66
2019-05-28T16:03:44.883Z,42.36
2019-05-28T16:06:13.292Z,43.09
2019-05-28T16:08:41.704Z,43.49
2019-05-28T16:11:10.113Z,42.62
2019-05-28T16:13:38.534Z,42.39
2019-05-28T16:16:07.925Z,42.85
2019-05-28T16:18:36.414Z,42.85
2019-05-28T16:21:04.895Z,43.07
2019-05-28T16:23:33.288Z,42.21
2019-05-28T16:26:01.695Z,42.36
2019-05-28T16:28:30.101Z,41.70
2019-05-28T16:31:12.016Z,41.92
2019-05-28T16:33:28.683Z,41.22
2019-05-28T16:35:57.091Z,42.73
2019-05-28T16:38:25.491Z,41.70
2019-05-28T16:40:53.901Z,41.56
2019-05-28T16:43:22.319Z,42.25
2019-05-28T16:45:50.730Z,42.73
2019-05-28T16:48:19.128Z,41.92
2019-05-28T16:50:47.544Z,42.53
2019-05-28T16:53:15.936Z,41.96
2019-05-28T16:55:44.404Z,41.98
2019-05-28T16:58:12.812Z,42.94
2019-05-28T17:00:41.226Z,42.83
2019-05-28T17:03:09.677Z,43.69
2019-05-28T17:05:38.053Z,42.83
2019-05-28T17:08:06.468Z,43.37
2019-05-28T17:10:34.882Z,43.98
2019-05-28T17:13:03.366Z,43.71
2019-05-28T17:15:31.768Z,44.04
2019-05-28T17:18:00.175Z,44.35
2019-05-28T17:20:28.613Z,44.40
2019-05-28T17:22:57.003Z,45.91
2019-05-28T17:25:25.404Z,45.62
2019-05-28T17:27:54.070Z,45.68
2019-05-28T17:30:24.229Z,45.38
2019-05-28T17:32:52.726Z,46.26
2019-05-28T17:35:21.141Z,47.06
2019-05-28T17:37:49.547Z,47.13
2019-05-28T17:40:21.646Z,47.76
2019-05-28T17:42:48.236Z,48.30
2019-05-28T17:45:17.216Z,48.06
2019-05-28T17:47:45.661Z,48.30
2019-05-28T17:50:15.728Z,48.06
2019-05-28T17:52:44.554Z,48.05
2019-05-28T17:55:13.038Z,48.68
2019-05-28T17:57:41.438Z,48.72
2019-05-28T18:00:10.888Z,49.32
2019-05-28T18:02:39.290Z,49.92
2019-05-28T18:05:07.952Z,50.31
2019-05-28T18:07:36.343Z,50.41
2019-05-28T18:10:10.827Z,50.78
2019-05-28T18:12:39.289Z,50.75
2019-05-28T18:15:09.432Z,51.27
2019-05-28T18:17:37.925Z,50.99
2019-05-28T18:20:08.053Z,50.86
2019-05-28T18:22:36.603Z,51.63
2019-05-28T18:25:06.554Z,52.08
2019-05-28T18:27:34.962Z,52.47
2019-05-28T18:30:05.646Z,52.27
2019-05-28T18:32:34.062Z,52.07
2019-05-28T18:35:02.647Z,52.57
2019-05-28T18:37:31.146Z,51.96
2019-05-28T18:39:59.542Z,52.37
2019-05-28T18:42:27.961Z,52.78
2019-05-28T18:44:56.355Z,53.04
2019-05-28T18:47:24.774Z,52.74
2019-05-28T18:49:56.815Z,53.22
2019-05-28T18:52:23.305Z,52.74
2019-05-28T18:54:51.704Z,53.66
2019-05-28T18:57:20.197Z,53.70
2019-05-28T18:59:48.595Z,53.94
2019-05-28T19:02:17.010Z,54.14
2019-05-28T19:04:45.407Z,54.30
2019-05-28T19:07:13.836Z,54.82
2019-05-28T19:09:42.283Z,54.96
2019-05-28T19:12:10.711Z,54.89
2019-05-28T19:14:39.158Z,54.91
2019-05-28T19:17:07.659Z,54.78
2019-05-28T19:19:36.063Z,54.67
2019-05-28T19:22:04.608Z,54.61
2019-05-28T19:24:33.032Z,54.59
2019-05-28T19:27:01.609Z,54.41
2019-05-28T19:29:30.048Z,54.40
2019-05-28T19:31:58.634Z,53.95
2019-05-28T19:34:27.471Z,54.01
2019-05-28T19:36:56.583Z,53.73
2019-05-28T19:39:25.468Z,54.20
2019-05-28T19:41:54.829Z,54.35
2019-05-28T19:44:23.274Z,54.63
2019-05-28T19:46:51.971Z,55.16
2019-05-28T19:49:20.364Z,55.42
2019-05-28T19:51:48.785Z,55.44
2019-05-28T19:54:17.188Z,55.35
2019-05-28T19:56:45.598Z,55.47
2019-05-28T19:59:14.000Z,55.79
2019-05-28T20:01:42.406Z,56.45
2019-05-28T20:04:10.804Z,56.62
2019-05-28T20:06:39.223Z,57.09
2019-05-28T20:09:08.762Z,57.42
2019-05-28T20:11:37.454Z,57.66
2019-05-28T20:14:05.906Z,57.64
2019-05-28T20:16:34.256Z,58.23
2019-05-28T20:19:02.656Z,57.78
2019-05-28T20:21:31.060Z,57.75
2019-05-28T20:23:59.465Z,57.99
2019-05-28T20:26:27.960Z,58.20
2019-05-28T20:29:07.963Z,58.14
2019-05-28T20:31:26.571Z,58.45
2019-05-28T20:33:54.982Z,58.19
2019-05-28T20:36:23.381Z,58.19
2019-05-28T20:38:51.794Z,58.54
2019-05-28T20:41:20.201Z,59.51
2019-05-28T20:43:48.602Z,59.95
2019-05-28T20:46:17.011Z,60.34
2019-05-28T20:48:45.424Z,60.50
2019-05-28T20:51:21.658Z,61.20
2019-05-28T20:53:43.977Z,61.70
2019-05-28T20:56:12.396Z,61.39
2019-05-28T20:58:40.888Z,61.76
2019-05-28T21:01:09.287Z,61.80
2019-05-28T21:03:37.693Z,61.97
2019-05-28T21:06:06.104Z,62.32
2019-05-28T21:08:34.516Z,62.67
2019-05-28T21:11:02.965Z,62.61
2019-05-28T21:13:31.362Z,62.83
2019-05-28T21:15:59.763Z,62.86
2019-05-28T21:18:28.161Z,62.86
2019-05-28T21:20:57.573Z,62.74
2019-05-28T21:23:26.003Z,63.03
2019-05-28T21:25:54.420Z,63.49
2019-05-28T21:28:25.731Z,63.96
2019-05-28T21:30:52.955Z,64.08
2019-05-28T21:33:21.362Z,64.30
2019-05-28T21:35:50.790Z,64.14
2019-05-28T21:38:19.257Z,64.87
2019-05-28T21:40:47.686Z,64.92
2019-05-28T21:43:16.084Z,65.30
2019-05-28T21:45:44.487Z,65.71
2019-05-28T21:48:12.895Z,65.88
2019-05-28T21:50:41.338Z,66.24
2019-05-28T21:53:09.751Z,66.34
2019-05-28T21:55:38.147Z,66.42
2019-05-28T21:58:06.566Z,66.43
2019-05-28T22:00:48.387Z,66.36
2019-05-28T22:03:17.073Z,66.68
2019-05-28T22:05:45.470Z,67.03
2019-05-28T22:08:13.881Z,67.40
2019-05-28T22:10:42.295Z,67.73
2019-05-28T22:13:21.531Z,67.67
2019-05-28T22:15:40.891Z,67.58
2019-05-28T22:18:09.302Z,67.70
2019-05-28T22:20:37.717Z,67.90
2019-05-28T22:23:06.140Z,67.98
2019-05-28T22:25:34.524Z,68.05
2019-05-28T22:28:02.940Z,68.46
2019-05-28T22:30:31.517Z,68.58
2019-05-28T22:33:00.108Z,69.09
2019-05-28T22:35:28.518Z,68.80
2019-05-28T22:37:57.158Z,68.67
2019-05-28T22:40:25.768Z,68.81
2019-05-28T22:42:54.181Z,69.00
2019-05-28T22:45:22.576Z,69.18
2019-05-28T22:47:51.487Z,68.82
2019-05-28T22:50:23.116Z,68.77
2019-05-28T22:52:50.326Z,68.66
2019-05-28T22:55:18.891Z,68.64
2019-05-28T22:57:47.320Z,68.48
2019-05-28T23:00:16.470Z,68.20
2019-05-28T23:02:44.873Z,68.42
2019-05-28T23:05:13.423Z,68.53
2019-05-28T23:07:41.814Z,68.38
2019-05-28T23:10:11.352Z,68.29
2019-05-28T23:12:39.750Z,68.72
2019-05-28T23:15:10.466Z,68.85
2019-05-28T23:17:39.054Z,69.15
2019-05-28T23:20:11.477Z,69.23
2019-05-28T23:22:39.881Z,69.15
2019-05-28T23:25:10.037Z,69.47
2019-05-28T23:27:38.434Z,69.78
2019-05-28T23:30:21.541Z,70.00
2019-05-28T23:32:37.965Z,69.85
2019-05-28T23:35:08.958Z,70.22
2019-05-28T23:37:37.381Z,70.12
2019-05-28T23:40:07.137Z,70.03
2019-05-28T23:42:35.507Z,69.66
2019-05-28T23:45:05.596Z,70.08
2019-05-28T23:47:34.053Z,70.01
2019-05-28T23:50:02.455Z,70.22
2019-05-28T23:52:30.860Z,70.18
2019-05-28T23:54:59.258Z,70.69
2019-05-28T23:57:27.659Z,70.34
2019-05-28T23:59:56.108Z,70.30
